sensor_id;sensor_type;location;lat;lon;timestamp;temperature;humidity
60473;DHT22;46318;52.716;6.444;2023-04-03T00:00:14;3.70;97.00
60473;DHT22;46318;52.716;6.444;2023-04-03T00:02:40;3.70;97.10
60473;DHT22;46318;52.716;6.444;2023-04-03T00:05:06;3.70;97.10
60473;DHT22;46318;52.716;6.444;2023-04-03T00:07:32;3.70;97.10
60473;DHT22;46318;52.716;6.444;2023-04-03T00:09:58;3.60;97.20
60473;DHT22;46318;52.716;6.444;2023-04-03T00:12:24;3.70;97.30
60473;DHT22;46318;52.716;6.444;2023-04-03T00:14:50;3.60;97.40
60473;DHT22;46318;52.716;6.444;2023-04-03T00:17:16;3.60;97.40
60473;DHT22;46318;52.716;6.444;2023-04-03T00:19:41;3.50;97.50
60473;DHT22;46318;52.716;6.444;2023-04-03T00:22:07;3.50;97.50
60473;DHT22;46318;52.716;6.444;2023-04-03T00:24:33;3.50;97.60
60473;DHT22;46318;52.716;6.444;2023-04-03T00:26:59;3.50;97.70
60473;DHT22;46318;52.716;6.444;2023-04-03T00:29:25;3.50;97.80
60473;DHT22;46318;52.716;6.444;2023-04-03T00:31:51;3.50;97.80
60473;DHT22;46318;52.716;6.444;2023-04-03T00:34:16;3.40;97.80
60473;DHT22;46318;52.716;6.444;2023-04-03T00:36:42;3.40;97.90
60473;DHT22;46318;52.716;6.444;2023-04-03T00:39:08;3.40;98.10
60473;DHT22;46318;52.716;6.444;2023-04-03T00:41:34;3.40;98.10
60473;DHT22;46318;52.716;6.444;2023-04-03T00:44:00;3.40;98.20
60473;DHT22;46318;52.716;6.444;2023-04-03T00:46:26;3.30;98.20
60473;DHT22;46318;52.716;6.444;2023-04-03T00:48:52;3.30;98.30
60473;DHT22;46318;52.716;6.444;2023-04-03T00:51:22;3.30;98.30
60473;DHT22;46318;52.716;6.444;2023-04-03T00:53:55;3.20;98.40
60473;DHT22;46318;52.716;6.444;2023-04-03T00:56:26;3.20;98.60
60473;DHT22;46318;52.716;6.444;2023-04-03T00:58:54;3.20;98.70
60473;DHT22;46318;52.716;6.444;2023-04-03T01:01:24;3.20;98.60
60473;DHT22;46318;52.716;6.444;2023-04-03T01:03:52;3.10;98.70
60473;DHT22;46318;52.716;6.444;2023-04-03T01:06:23;3.20;98.80
60473;DHT22;46318;52.716;6.444;2023-04-03T01:08:52;3.10;99.00
60473;DHT22;46318;52.716;6.444;2023-04-03T01:11:18;3.10;99.10
60473;DHT22;46318;52.716;6.444;2023-04-03T01:13:46;3.10;99.10
60473;DHT22;46318;52.716;6.444;2023-04-03T01:16:12;3.10;99.20
60473;DHT22;46318;52.716;6.444;2023-04-03T01:18:39;3.00;99.20
60473;DHT22;46318;52.716;6.444;2023-04-03T01:26:57;3.00;99.80
60473;DHT22;46318;52.716;6.444;2023-04-03T01:29:23;2.90;99.70
60473;DHT22;46318;52.716;6.444;2023-04-03T01:32:00;2.90;99.80
60473;DHT22;46318;52.716;6.444;2023-04-03T01:34:27;2.90;99.90
60473;DHT22;46318;52.716;6.444;2023-04-03T01:36:54;2.90;99.90
60473;DHT22;46318;52.716;6.444;2023-04-03T01:39:20;2.80;99.90
60473;DHT22;46318;52.716;6.444;2023-04-03T01:41:46;2.80;99.90
60473;DHT22;46318;52.716;6.444;2023-04-03T01:44:13;2.80;99.90
60473;DHT22;46318;52.716;6.444;2023-04-03T01:46:39;2.80;99.90
60473;DHT22;46318;52.716;6.444;2023-04-03T01:49:06;2.80;99.90
60473;DHT22;46318;52.716;6.444;2023-04-03T01:51:32;2.70;99.90
60473;DHT22;46318;52.716;6.444;2023-04-03T01:53:59;2.70;99.90
60473;DHT22;46318;52.716;6.444;2023-04-03T01:56:24;2.70;99.90
60473;DHT22;46318;52.716;6.444;2023-04-03T01:58:50;2.70;99.90
60473;DHT22;46318;52.716;6.444;2023-04-03T02:01:16;2.60;99.90
60473;DHT22;46318;52.716;6.444;2023-04-03T02:03:42;2.60;99.90
60473;DHT22;46318;52.716;6.444;2023-04-03T02:06:08;2.60;99.90
60473;DHT22;46318;52.716;6.444;2023-04-03T02:08:34;2.60;99.90
60473;DHT22;46318;52.716;6.444;2023-04-03T02:11:00;2.60;99.90
60473;DHT22;46318;52.716;6.444;2023-04-03T02:13:25;2.50;99.90
60473;DHT22;46318;52.716;6.444;2023-04-03T02:15:51;2.50;99.90
60473;DHT22;46318;52.716;6.444;2023-04-03T02:18:18;2.50;99.90
60473;DHT22;46318;52.716;6.444;2023-04-03T02:20:44;2.50;99.90
60473;DHT22;46318;52.716;6.444;2023-04-03T02:23:10;2.50;99.90
60473;DHT22;46318;52.716;6.444;2023-04-03T02:25:36;2.40;99.90
60473;DHT22;46318;52.716;6.444;2023-04-03T02:28:02;2.50;99.90
60473;DHT22;46318;52.716;6.444;2023-04-03T02:30:28;2.40;99.90
60473;DHT22;46318;52.716;6.444;2023-04-03T02:32:53;2.40;99.90
60473;DHT22;46318;52.716;6.444;2023-04-03T02:35:20;2.40;99.90
60473;DHT22;46318;52.716;6.444;2023-04-03T02:37:46;2.40;99.90
60473;DHT22;46318;52.716;6.444;2023-04-03T02:40:12;2.30;99.90
60473;DHT22;46318;52.716;6.444;2023-04-03T02:42:38;2.30;99.90
60473;DHT22;46318;52.716;6.444;2023-04-03T02:45:04;2.30;99.90
60473;DHT22;46318;52.716;6.444;2023-04-03T02:47:30;2.30;99.90
60473;DHT22;46318;52.716;6.444;2023-04-03T02:49:56;2.30;99.90
60473;DHT22;46318;52.716;6.444;2023-04-03T02:52:22;2.30;99.90
60473;DHT22;46318;52.716;6.444;2023-04-03T02:54:48;2.30;99.90
60473;DHT22;46318;52.716;6.444;2023-04-03T02:57:13;2.20;99.90
60473;DHT22;46318;52.716;6.444;2023-04-03T02:59:39;2.20;99.90
60473;DHT22;46318;52.716;6.444;2023-04-03T03:02:07;2.20;99.90
60473;DHT22;46318;52.716;6.444;2023-04-03T03:04:33;2.20;99.90
60473;DHT22;46318;52.716;6.444;2023-04-03T03:07:00;2.20;99.90
60473;DHT22;46318;52.716;6.444;2023-04-03T03:09:26;2.10;99.90
60473;DHT22;46318;52.716;6.444;2023-04-03T03:11:52;2.10;99.90
60473;DHT22;46318;52.716;6.444;2023-04-03T03:14:18;2.10;99.90
60473;DHT22;46318;52.716;6.444;2023-04-03T03:16:44;2.10;99.90
60473;DHT22;46318;52.716;6.444;2023-04-03T03:19:10;2.10;99.90
60473;DHT22;46318;52.716;6.444;2023-04-03T03:21:36;2.00;99.90
60473;DHT22;46318;52.716;6.444;2023-04-03T03:24:02;2.00;99.90
60473;DHT22;46318;52.716;6.444;2023-04-03T03:26:28;2.00;99.90
60473;DHT22;46318;52.716;6.444;2023-04-03T03:28:54;2.00;99.90
60473;DHT22;46318;52.716;6.444;2023-04-03T03:31:20;1.90;99.90
60473;DHT22;46318;52.716;6.444;2023-04-03T03:33:46;2.00;99.90
60473;DHT22;46318;52.716;6.444;2023-04-03T03:36:11;1.90;99.90
60473;DHT22;46318;52.716;6.444;2023-04-03T03:38:38;1.90;99.90
60473;DHT22;46318;52.716;6.444;2023-04-03T03:41:04;1.90;99.90
60473;DHT22;46318;52.716;6.444;2023-04-03T03:43:30;1.90;99.90
60473;DHT22;46318;52.716;6.444;2023-04-03T03:45:55;1.80;99.90
60473;DHT22;46318;52.716;6.444;2023-04-03T03:48:23;1.80;99.90
60473;DHT22;46318;52.716;6.444;2023-04-03T03:50:49;1.80;99.90
60473;DHT22;46318;52.716;6.444;2023-04-03T03:53:15;1.80;99.90
60473;DHT22;46318;52.716;6.444;2023-04-03T03:55:41;1.80;99.90
60473;DHT22;46318;52.716;6.444;2023-04-03T03:58:08;1.70;99.90
60473;DHT22;46318;52.716;6.444;2023-04-03T04:00:35;1.80;99.90
60473;DHT22;46318;52.716;6.444;2023-04-03T04:03:00;1.70;99.90
60473;DHT22;46318;52.716;6.444;2023-04-03T04:05:26;1.70;99.90
60473;DHT22;46318;52.716;6.444;2023-04-03T04:07:52;1.70;99.90
60473;DHT22;46318;52.716;6.444;2023-04-03T04:10:18;1.70;99.90
60473;DHT22;46318;52.716;6.444;2023-04-03T04:12:44;1.60;99.90
60473;DHT22;46318;52.716;6.444;2023-04-03T04:15:10;1.60;99.90
60473;DHT22;46318;52.716;6.444;2023-04-03T04:17:36;1.60;99.90
60473;DHT22;46318;52.716;6.444;2023-04-03T04:20:05;1.60;99.90
60473;DHT22;46318;52.716;6.444;2023-04-03T04:22:31;1.60;99.90
60473;DHT22;46318;52.716;6.444;2023-04-03T04:24:57;1.50;99.90
60473;DHT22;46318;52.716;6.444;2023-04-03T04:27:23;1.50;99.90
60473;DHT22;46318;52.716;6.444;2023-04-03T04:29:49;1.50;99.90
60473;DHT22;46318;52.716;6.444;2023-04-03T04:32:15;1.50;99.90
60473;DHT22;46318;52.716;6.444;2023-04-03T04:34:41;1.40;99.90
60473;DHT22;46318;52.716;6.444;2023-04-03T04:37:07;1.40;99.90
60473;DHT22;46318;52.716;6.444;2023-04-03T04:39:32;1.40;99.90
60473;DHT22;46318;52.716;6.444;2023-04-03T04:41:58;1.40;99.90
60473;DHT22;46318;52.716;6.444;2023-04-03T04:44:24;1.40;99.90
60473;DHT22;46318;52.716;6.444;2023-04-03T04:46:50;1.30;99.90
60473;DHT22;46318;52.716;6.444;2023-04-03T04:49:16;1.30;99.90
60473;DHT22;46318;52.716;6.444;2023-04-03T04:51:41;1.30;99.90
60473;DHT22;46318;52.716;6.444;2023-04-03T04:54:07;1.30;99.90
60473;DHT22;46318;52.716;6.444;2023-04-03T04:56:33;1.20;99.90
60473;DHT22;46318;52.716;6.444;2023-04-03T04:58:59;1.20;99.90
60473;DHT22;46318;52.716;6.444;2023-04-03T05:01:25;1.20;99.90
60473;DHT22;46318;52.716;6.444;2023-04-03T05:03:50;1.20;99.90
60473;DHT22;46318;52.716;6.444;2023-04-03T05:06:16;1.20;99.90
60473;DHT22;46318;52.716;6.444;2023-04-03T05:08:42;1.10;99.90
60473;DHT22;46318;52.716;6.444;2023-04-03T05:11:08;1.10;99.90
60473;DHT22;46318;52.716;6.444;2023-04-03T05:13:34;1.10;99.90
60473;DHT22;46318;52.716;6.444;2023-04-03T05:16:00;1.10;99.90
60473;DHT22;46318;52.716;6.444;2023-04-03T05:18:26;1.10;99.90
60473;DHT22;46318;52.716;6.444;2023-04-03T05:20:52;1.00;99.90
60473;DHT22;46318;52.716;6.444;2023-04-03T05:23:18;1.00;99.90
60473;DHT22;46318;52.716;6.444;2023-04-03T05:25:44;1.00;99.90
60473;DHT22;46318;52.716;6.444;2023-04-03T05:28:12;1.00;99.90
60473;DHT22;46318;52.716;6.444;2023-04-03T05:30:38;1.00;99.90
60473;DHT22;46318;52.716;6.444;2023-04-03T05:33:04;0.90;99.90
60473;DHT22;46318;52.716;6.444;2023-04-03T05:35:30;0.90;99.90
60473;DHT22;46318;52.716;6.444;2023-04-03T05:37:56;0.90;99.90
60473;DHT22;46318;52.716;6.444;2023-04-03T05:40:22;0.90;99.90
60473;DHT22;46318;52.716;6.444;2023-04-03T05:42:48;0.90;99.90
60473;DHT22;46318;52.716;6.444;2023-04-03T05:45:14;0.90;99.90
60473;DHT22;46318;52.716;6.444;2023-04-03T05:47:40;0.90;99.90
60473;DHT22;46318;52.716;6.444;2023-04-03T05:50:06;0.90;99.90
60473;DHT22;46318;52.716;6.444;2023-04-03T05:52:36;0.90;99.90
60473;DHT22;46318;52.716;6.444;2023-04-03T05:55:03;0.80;99.90
60473;DHT22;46318;52.716;6.444;2023-04-03T05:57:29;0.80;99.90
60473;DHT22;46318;52.716;6.444;2023-04-03T05:59:55;0.80;99.90
60473;DHT22;46318;52.716;6.444;2023-04-03T06:02:23;0.80;99.90
60473;DHT22;46318;52.716;6.444;2023-04-03T06:04:50;0.80;99.90
60473;DHT22;46318;52.716;6.444;2023-04-03T06:07:22;0.80;99.90
60473;DHT22;46318;52.716;6.444;2023-04-03T06:09:49;0.80;99.90
60473;DHT22;46318;52.716;6.444;2023-04-03T06:12:17;0.80;99.90
60473;DHT22;46318;52.716;6.444;2023-04-03T06:14:43;0.90;99.90
60473;DHT22;46318;52.716;6.444;2023-04-03T06:17:09;0.80;99.90
60473;DHT22;46318;52.716;6.444;2023-04-03T06:19:35;0.80;99.90
60473;DHT22;46318;52.716;6.444;2023-04-03T06:22:01;0.90;99.90
60473;DHT22;46318;52.716;6.444;2023-04-03T06:24:28;0.90;99.90
60473;DHT22;46318;52.716;6.444;2023-04-03T06:26:55;0.90;99.90
60473;DHT22;46318;52.716;6.444;2023-04-03T06:29:22;0.90;99.90
60473;DHT22;46318;52.716;6.444;2023-04-03T06:31:48;1.00;99.90
60473;DHT22;46318;52.716;6.444;2023-04-03T06:34:15;1.00;99.90
60473;DHT22;46318;52.716;6.444;2023-04-03T06:36:42;1.00;99.90
60473;DHT22;46318;52.716;6.444;2023-04-03T06:39:15;1.10;99.90
60473;DHT22;46318;52.716;6.444;2023-04-03T06:41:43;1.10;99.90
60473;DHT22;46318;52.716;6.444;2023-04-03T06:44:09;1.20;99.90
60473;DHT22;46318;52.716;6.444;2023-04-03T06:46:37;1.30;99.90
60473;DHT22;46318;52.716;6.444;2023-04-03T06:49:04;1.40;99.90
60473;DHT22;46318;52.716;6.444;2023-04-03T06:51:33;1.40;99.90
60473;DHT22;46318;52.716;6.444;2023-04-03T06:53:59;1.40;99.90
60473;DHT22;46318;52.716;6.444;2023-04-03T06:56:26;1.50;99.90
60473;DHT22;46318;52.716;6.444;2023-04-03T06:58:53;1.50;99.90
60473;DHT22;46318;52.716;6.444;2023-04-03T07:01:21;1.60;99.90
60473;DHT22;46318;52.716;6.444;2023-04-03T07:03:48;1.60;99.90
60473;DHT22;46318;52.716;6.444;2023-04-03T07:06:16;1.60;99.90
60473;DHT22;46318;52.716;6.444;2023-04-03T07:08:43;1.70;99.90
60473;DHT22;46318;52.716;6.444;2023-04-03T07:11:11;1.70;99.90
60473;DHT22;46318;52.716;6.444;2023-04-03T07:13:37;1.80;99.90
60473;DHT22;46318;52.716;6.444;2023-04-03T07:16:04;1.80;99.90
60473;DHT22;46318;52.716;6.444;2023-04-03T07:18:32;1.90;99.90
60473;DHT22;46318;52.716;6.444;2023-04-03T07:20:58;1.90;99.90
60473;DHT22;46318;52.716;6.444;2023-04-03T07:23:24;2.00;99.90
60473;DHT22;46318;52.716;6.444;2023-04-03T07:25:51;2.00;99.90
60473;DHT22;46318;52.716;6.444;2023-04-03T07:28:19;2.10;99.90
60473;DHT22;46318;52.716;6.444;2023-04-03T07:30:53;2.20;99.90
60473;DHT22;46318;52.716;6.444;2023-04-03T07:33:25;2.20;99.90
60473;DHT22;46318;52.716;6.444;2023-04-03T07:35:51;2.30;99.90
60473;DHT22;46318;52.716;6.444;2023-04-03T07:38:17;2.30;99.90
60473;DHT22;46318;52.716;6.444;2023-04-03T07:40:48;2.40;99.90
60473;DHT22;46318;52.716;6.444;2023-04-03T07:43:16;2.50;99.90
60473;DHT22;46318;52.716;6.444;2023-04-03T07:45:42;2.50;99.90
60473;DHT22;46318;52.716;6.444;2023-04-03T07:48:10;2.60;99.90
60473;DHT22;46318;52.716;6.444;2023-04-03T07:50:39;2.70;99.90
60473;DHT22;46318;52.716;6.444;2023-04-03T07:53:06;2.80;99.90
60473;DHT22;46318;52.716;6.444;2023-04-03T07:55:32;2.80;99.90
60473;DHT22;46318;52.716;6.444;2023-04-03T07:57:58;2.90;99.90
60473;DHT22;46318;52.716;6.444;2023-04-03T08:00:24;3.00;99.90
60473;DHT22;46318;52.716;6.444;2023-04-03T08:02:50;3.10;99.90
60473;DHT22;46318;52.716;6.444;2023-04-03T08:05:20;3.20;99.90
60473;DHT22;46318;52.716;6.444;2023-04-03T08:07:47;3.20;99.90
60473;DHT22;46318;52.716;6.444;2023-04-03T08:10:14;3.30;99.90
60473;DHT22;46318;52.716;6.444;2023-04-03T08:12:41;3.40;99.90
60473;DHT22;46318;52.716;6.444;2023-04-03T08:15:08;3.50;99.90
60473;DHT22;46318;52.716;6.444;2023-04-03T08:17:34;3.60;99.90
60473;DHT22;46318;52.716;6.444;2023-04-03T08:20:02;3.60;99.70
60473;DHT22;46318;52.716;6.444;2023-04-03T08:22:30;3.70;99.70
60473;DHT22;46318;52.716;6.444;2023-04-03T08:24:56;3.90;99.30
60473;DHT22;46318;52.716;6.444;2023-04-03T08:27:21;3.90;98.80
60473;DHT22;46318;52.716;6.444;2023-04-03T08:29:47;4.00;98.10
60473;DHT22;46318;52.716;6.444;2023-04-03T08:32:13;4.10;97.70
60473;DHT22;46318;52.716;6.444;2023-04-03T08:34:39;4.20;96.50
60473;DHT22;46318;52.716;6.444;2023-04-03T08:37:05;4.30;96.60
60473;DHT22;46318;52.716;6.444;2023-04-03T08:39:31;4.30;96.30
60473;DHT22;46318;52.716;6.444;2023-04-03T08:41:58;4.40;96.10
60473;DHT22;46318;52.716;6.444;2023-04-03T08:44:44;4.40;95.80
60473;DHT22;46318;52.716;6.444;2023-04-03T08:50:07;4.60;94.90
60473;DHT22;46318;52.716;6.444;2023-04-03T08:52:44;4.70;94.20
60473;DHT22;46318;52.716;6.444;2023-04-03T08:55:45;4.80;93.80
60473;DHT22;46318;52.716;6.444;2023-04-03T08:58:28;4.90;93.00
60473;DHT22;46318;52.716;6.444;2023-04-03T09:01:03;5.00;93.60
60473;DHT22;46318;52.716;6.444;2023-04-03T09:03:32;5.00;93.00
60473;DHT22;46318;52.716;6.444;2023-04-03T09:06:10;5.10;93.40
60473;DHT22;46318;52.716;6.444;2023-04-03T09:11:27;5.30;91.40
60473;DHT22;46318;52.716;6.444;2023-04-03T09:14:23;5.40;90.70
60473;DHT22;46318;52.716;6.444;2023-04-03T09:17:00;5.40;91.20
60473;DHT22;46318;52.716;6.444;2023-04-03T09:25:02;5.60;88.20
60473;DHT22;46318;52.716;6.444;2023-04-03T09:27:37;5.70;83.00
60473;DHT22;46318;52.716;6.444;2023-04-03T09:30:03;5.80;86.00
60473;DHT22;46318;52.716;6.444;2023-04-03T09:32:33;5.90;85.00
60473;DHT22;46318;52.716;6.444;2023-04-03T09:35:13;6.00;84.60
60473;DHT22;46318;52.716;6.444;2023-04-03T09:40:37;6.10;82.00
60473;DHT22;46318;52.716;6.444;2023-04-03T09:43:27;6.20;81.40
60473;DHT22;46318;52.716;6.444;2023-04-03T09:45:55;6.30;77.80
60473;DHT22;46318;52.716;6.444;2023-04-03T09:48:24;6.40;82.30
60473;DHT22;46318;52.716;6.444;2023-04-03T09:53:39;6.50;79.50
60473;DHT22;46318;52.716;6.444;2023-04-03T09:56:22;6.60;73.40
60473;DHT22;46318;52.716;6.444;2023-04-03T09:59:14;6.60;70.80
60473;DHT22;46318;52.716;6.444;2023-04-03T10:01:55;6.70;67.20
60473;DHT22;46318;52.716;6.444;2023-04-03T10:04:23;6.80;75.20
60473;DHT22;46318;52.716;6.444;2023-04-03T10:06:52;6.80;75.70
60473;DHT22;46318;52.716;6.444;2023-04-03T10:09:23;6.90;75.80
60473;DHT22;46318;52.716;6.444;2023-04-03T10:14:32;7.10;70.90
60473;DHT22;46318;52.716;6.444;2023-04-03T10:20:06;7.30;66.10
60473;DHT22;46318;52.716;6.444;2023-04-03T10:29:01;7.50;59.70
60473;DHT22;46318;52.716;6.444;2023-04-03T10:32:32;7.60;53.40
60473;DHT22;46318;52.716;6.444;2023-04-03T10:41:04;7.60;53.70
60473;DHT22;46318;52.716;6.444;2023-04-03T10:46:32;7.80;55.40
60473;DHT22;46318;52.716;6.444;2023-04-03T10:53:14;7.90;53.10
60473;DHT22;46318;52.716;6.444;2023-04-03T10:57:55;8.10;55.20
60473;DHT22;46318;52.716;6.444;2023-04-03T11:00:47;8.10;55.00
60473;DHT22;46318;52.716;6.444;2023-04-03T11:03:24;8.20;52.40
60473;DHT22;46318;52.716;6.444;2023-04-03T11:05:55;8.20;51.20
60473;DHT22;46318;52.716;6.444;2023-04-03T11:11:33;8.40;55.90
60473;DHT22;46318;52.716;6.444;2023-04-03T11:14:17;8.40;57.90
60473;DHT22;46318;52.716;6.444;2023-04-03T11:17:04;8.50;56.00
60473;DHT22;46318;52.716;6.444;2023-04-03T11:25:34;8.70;56.70
60473;DHT22;46318;52.716;6.444;2023-04-03T11:28:05;8.80;56.80
60473;DHT22;46318;52.716;6.444;2023-04-03T11:36:31;8.90;54.70
60473;DHT22;46318;52.716;6.444;2023-04-03T11:39:07;9.00;54.40
60473;DHT22;46318;52.716;6.444;2023-04-03T11:41:41;9.00;53.30
60473;DHT22;46318;52.716;6.444;2023-04-03T11:44:34;9.10;53.30
60473;DHT22;46318;52.716;6.444;2023-04-03T11:47:09;9.10;52.20
60473;DHT22;46318;52.716;6.444;2023-04-03T11:50:30;9.10;52.00
60473;DHT22;46318;52.716;6.444;2023-04-03T12:16:25;9.90;49.90
60473;DHT22;46318;52.716;6.444;2023-04-03T12:41:37;10.40;49.30
60473;DHT22;46318;52.716;6.444;2023-04-03T12:47:24;10.50;47.50
60473;DHT22;46318;52.716;6.444;2023-04-03T12:49:59;10.60;48.70
60473;DHT22;46318;52.716;6.444;2023-04-03T12:52:42;10.60;48.50
60473;DHT22;46318;52.716;6.444;2023-04-03T12:55:19;10.60;48.30
60473;DHT22;46318;52.716;6.444;2023-04-03T12:57:46;10.70;48.10
60473;DHT22;46318;52.716;6.444;2023-04-03T13:02:56;10.70;48.30
60473;DHT22;46318;52.716;6.444;2023-04-03T13:05:22;10.90;48.80
60473;DHT22;46318;52.716;6.444;2023-04-03T13:07:52;10.90;48.00
60473;DHT22;46318;52.716;6.444;2023-04-03T13:10:22;11.00;47.70
60473;DHT22;46318;52.716;6.444;2023-04-03T13:12:52;11.00;48.30
60473;DHT22;46318;52.716;6.444;2023-04-03T13:15:40;11.00;47.00
60473;DHT22;46318;52.716;6.444;2023-04-03T13:18:41;11.00;46.30
60473;DHT22;46318;52.716;6.444;2023-04-03T13:21:17;11.00;45.80
60473;DHT22;46318;52.716;6.444;2023-04-03T13:23:49;11.10;46.80
60473;DHT22;46318;52.716;6.444;2023-04-03T13:26:18;11.10;47.00
60473;DHT22;46318;52.716;6.444;2023-04-03T13:28:46;11.10;46.50
60473;DHT22;46318;52.716;6.444;2023-04-03T13:33:45;11.10;46.10
60473;DHT22;46318;52.716;6.444;2023-04-03T13:36:24;11.10;45.40
60473;DHT22;46318;52.716;6.444;2023-04-03T13:39:01;11.20;45.60
60473;DHT22;46318;52.716;6.444;2023-04-03T13:41:38;11.20;46.50
60473;DHT22;46318;52.716;6.444;2023-04-03T13:44:36;11.40;46.20
60473;DHT22;46318;52.716;6.444;2023-04-03T13:47:21;11.40;45.30
60473;DHT22;46318;52.716;6.444;2023-04-03T13:50:11;11.50;45.50
60473;DHT22;46318;52.716;6.444;2023-04-03T13:52:45;11.50;45.70
60473;DHT22;46318;52.716;6.444;2023-04-03T14:00:36;11.60;44.50
60473;DHT22;46318;52.716;6.444;2023-04-03T14:03:42;11.70;45.60
60473;DHT22;46318;52.716;6.444;2023-04-03T14:06:15;11.80;45.70
60473;DHT22;46318;52.716;6.444;2023-04-03T14:08:42;11.80;45.40
60473;DHT22;46318;52.716;6.444;2023-04-03T14:11:14;11.80;45.10
60473;DHT22;46318;52.716;6.444;2023-04-03T14:13:46;11.80;44.50
60473;DHT22;46318;52.716;6.444;2023-04-03T14:16:24;11.80;44.70
60473;DHT22;46318;52.716;6.444;2023-04-03T14:18:52;11.80;44.20
60473;DHT22;46318;52.716;6.444;2023-04-03T14:21:20;11.80;45.20
60473;DHT22;46318;52.716;6.444;2023-04-03T14:23:47;11.90;44.20
60473;DHT22;46318;52.716;6.444;2023-04-03T14:26:19;11.90;44.50
60473;DHT22;46318;52.716;6.444;2023-04-03T14:28:49;12.00;45.00
60473;DHT22;46318;52.716;6.444;2023-04-03T14:31:18;12.10;44.50
60473;DHT22;46318;52.716;6.444;2023-04-03T14:33:45;12.10;44.20
60473;DHT22;46318;52.716;6.444;2023-04-03T14:36:16;12.10;43.70
60473;DHT22;46318;52.716;6.444;2023-04-03T14:38:48;12.10;43.60
60473;DHT22;46318;52.716;6.444;2023-04-03T14:41:18;12.10;43.60
60473;DHT22;46318;52.716;6.444;2023-04-03T14:43:46;12.10;43.80
60473;DHT22;46318;52.716;6.444;2023-04-03T14:46:18;12.10;44.60
60473;DHT22;46318;52.716;6.444;2023-04-03T14:48:47;12.10;44.30
60473;DHT22;46318;52.716;6.444;2023-04-03T14:51:14;12.10;44.70
60473;DHT22;46318;52.716;6.444;2023-04-03T14:53:42;12.10;44.00
60473;DHT22;46318;52.716;6.444;2023-04-03T14:56:21;12.00;44.20
60473;DHT22;46318;52.716;6.444;2023-04-03T14:58:54;12.00;44.10
60473;DHT22;46318;52.716;6.444;2023-04-03T15:01:22;11.90;44.00
60473;DHT22;46318;52.716;6.444;2023-04-03T15:03:48;11.90;44.30
60473;DHT22;46318;52.716;6.444;2023-04-03T15:06:15;11.80;43.40
60473;DHT22;46318;52.716;6.444;2023-04-03T15:08:42;11.60;44.30
60473;DHT22;46318;52.716;6.444;2023-04-03T15:11:10;11.60;44.30
60473;DHT22;46318;52.716;6.444;2023-04-03T15:13:37;11.50;44.70
60473;DHT22;46318;52.716;6.444;2023-04-03T15:16:05;11.40;44.80
60473;DHT22;46318;52.716;6.444;2023-04-03T15:18:38;11.30;44.70
60473;DHT22;46318;52.716;6.444;2023-04-03T15:21:05;11.20;44.60
60473;DHT22;46318;52.716;6.444;2023-04-03T15:23:31;11.10;44.80
60473;DHT22;46318;52.716;6.444;2023-04-03T15:25:57;11.10;44.90
60473;DHT22;46318;52.716;6.444;2023-04-03T15:30:55;10.90;44.80
60473;DHT22;46318;52.716;6.444;2023-04-03T15:33:21;10.90;44.90
60473;DHT22;46318;52.716;6.444;2023-04-03T15:35:47;10.80;45.30
60473;DHT22;46318;52.716;6.444;2023-04-03T15:38:13;10.80;44.80
60473;DHT22;46318;52.716;6.444;2023-04-03T15:40:38;10.70;45.10
60473;DHT22;46318;52.716;6.444;2023-04-03T15:43:06;10.70;45.80
60473;DHT22;46318;52.716;6.444;2023-04-03T15:45:34;10.70;45.70
60473;DHT22;46318;52.716;6.444;2023-04-03T15:48:01;10.60;45.70
60473;DHT22;46318;52.716;6.444;2023-04-03T15:50:28;10.60;46.30
60473;DHT22;46318;52.716;6.444;2023-04-03T15:52:54;10.60;46.00
60473;DHT22;46318;52.716;6.444;2023-04-03T15:55:21;10.60;45.60
60473;DHT22;46318;52.716;6.444;2023-04-03T15:57:48;10.50;45.30
60473;DHT22;46318;52.716;6.444;2023-04-03T16:00:14;10.40;45.40
60473;DHT22;46318;52.716;6.444;2023-04-03T16:02:41;10.40;45.50
60473;DHT22;46318;52.716;6.444;2023-04-03T16:05:09;10.40;45.60
60473;DHT22;46318;52.716;6.444;2023-04-03T16:07:38;10.40;45.60
60473;DHT22;46318;52.716;6.444;2023-04-03T16:10:05;10.30;45.80
60473;DHT22;46318;52.716;6.444;2023-04-03T16:12:32;10.30;45.80
60473;DHT22;46318;52.716;6.444;2023-04-03T16:14:58;10.30;46.10
60473;DHT22;46318;52.716;6.444;2023-04-03T16:17:24;10.20;46.40
60473;DHT22;46318;52.716;6.444;2023-04-03T16:19:51;10.20;45.90
60473;DHT22;46318;52.716;6.444;2023-04-03T16:22:18;10.20;46.70
60473;DHT22;46318;52.716;6.444;2023-04-03T16:24:43;10.10;45.70
60473;DHT22;46318;52.716;6.444;2023-04-03T16:27:09;10.10;45.60
60473;DHT22;46318;52.716;6.444;2023-04-03T16:29:35;10.00;45.90
60473;DHT22;46318;52.716;6.444;2023-04-03T16:32:01;10.00;45.70
60473;DHT22;46318;52.716;6.444;2023-04-03T16:34:27;9.90;45.70
60473;DHT22;46318;52.716;6.444;2023-04-03T16:36:56;9.90;45.90
60473;DHT22;46318;52.716;6.444;2023-04-03T16:39:22;9.80;45.60
60473;DHT22;46318;52.716;6.444;2023-04-03T16:41:47;9.80;46.00
60473;DHT22;46318;52.716;6.444;2023-04-03T16:44:13;9.80;46.40
60473;DHT22;46318;52.716;6.444;2023-04-03T16:46:39;9.80;46.30
60473;DHT22;46318;52.716;6.444;2023-04-03T16:49:05;9.70;45.80
60473;DHT22;46318;52.716;6.444;2023-04-03T16:51:31;9.70;46.40
60473;DHT22;46318;52.716;6.444;2023-04-03T16:53:57;9.70;46.60
60473;DHT22;46318;52.716;6.444;2023-04-03T16:56:24;9.70;46.50
60473;DHT22;46318;52.716;6.444;2023-04-03T16:58:52;9.60;46.10
60473;DHT22;46318;52.716;6.444;2023-04-03T17:01:20;9.60;46.10
60473;DHT22;46318;52.716;6.444;2023-04-03T17:03:47;9.60;46.60
60473;DHT22;46318;52.716;6.444;2023-04-03T17:06:18;9.50;47.10
60473;DHT22;46318;52.716;6.444;2023-04-03T17:08:47;9.50;47.20
60473;DHT22;46318;52.716;6.444;2023-04-03T17:11:14;9.50;47.00
60473;DHT22;46318;52.716;6.444;2023-04-03T17:13:40;9.40;47.20
60473;DHT22;46318;52.716;6.444;2023-04-03T17:16:09;9.40;47.20
60473;DHT22;46318;52.716;6.444;2023-04-03T17:18:39;9.40;47.70
60473;DHT22;46318;52.716;6.444;2023-04-03T17:21:06;9.30;47.80
60473;DHT22;46318;52.716;6.444;2023-04-03T17:23:32;9.30;48.30
60473;DHT22;46318;52.716;6.444;2023-04-03T17:26:01;9.30;48.00
60473;DHT22;46318;52.716;6.444;2023-04-03T17:28:29;9.30;47.60
60473;DHT22;46318;52.716;6.444;2023-04-03T17:30:56;9.20;48.00
60473;DHT22;46318;52.716;6.444;2023-04-03T17:33:24;9.20;48.00
60473;DHT22;46318;52.716;6.444;2023-04-03T17:35:51;9.20;48.00
60473;DHT22;46318;52.716;6.444;2023-04-03T17:38:17;9.10;48.30
60473;DHT22;46318;52.716;6.444;2023-04-03T17:40:43;9.10;48.80
60473;DHT22;46318;52.716;6.444;2023-04-03T17:43:10;9.10;49.10
60473;DHT22;46318;52.716;6.444;2023-04-03T17:45:37;9.10;49.10
60473;DHT22;46318;52.716;6.444;2023-04-03T17:48:03;9.00;49.10
60473;DHT22;46318;52.716;6.444;2023-04-03T17:50:29;9.00;48.80
60473;DHT22;46318;52.716;6.444;2023-04-03T17:52:55;8.90;49.10
60473;DHT22;46318;52.716;6.444;2023-04-03T17:55:21;8.90;49.70
60473;DHT22;46318;52.716;6.444;2023-04-03T17:57:47;8.90;50.10
60473;DHT22;46318;52.716;6.444;2023-04-03T18:00:15;8.80;50.90